Time;durP1;ratioP1;P1;durP2;ratioP2;P2;SDS_P1;SDS_P2;PMS_P1;PMS_P2;Temp;Humidity;BMP_temperature;BMP_pressure;BME280_temperature;BME280_humidity;BME280_pressure;Samples;Min_cycle;Max_cycle;Signal;HPM_P1;HPM_P2
2021/07/16 00:00:41;;;;;;;0.55;0.55;;;;;;;28.84;46.45;99474.88;5033882;28;20438;-58
2021/07/16 00:03:07;;;;;;;0.08;0.08;;;;;;;28.83;46.22;99463.28;5033847;28;20099;-57
2021/07/16 00:05:33;;;;;;;0.10;0.10;;;;;;;28.78;46.13;99455.03;5051942;28;20102;-57
2021/07/16 00:07:59;;;;;;;1.08;0.32;;;;;;;28.82;46.34;99472.41;5033724;28;20044;-57
2021/07/16 00:10:25;;;;;;;0.20;0.20;;;;;;;28.81;46.53;99476.13;5051804;28;20052;-57
2021/07/16 00:12:51;;;;;;;0.22;0.22;;;;;;;28.80;46.34;99471.78;5051399;28;20057;-58
2021/07/16 00:15:18;;;;;;;0.13;0.13;;;;;;;28.78;46.32;99467.66;5051682;28;20052;-59
2021/07/16 00:17:44;;;;;;;0.10;0.10;;;;;;;28.79;46.27;99469.31;5051449;28;20055;-58
2021/07/16 00:20:11;;;;;;;0.10;0.10;;;;;;;28.77;46.41;99468.69;5033616;28;20117;-56
2021/07/16 00:22:37;;;;;;;0.00;0.00;;;;;;;28.75;46.48;99468.91;5051400;28;20527;-58
2021/07/16 00:25:07;;;;;;;0.13;0.13;;;;;;;28.71;46.27;99458.78;5051305;28;20471;-58
2021/07/16 00:27:33;;;;;;;0.20;0.20;;;;;;;28.73;46.54;99479.03;5051128;28;20099;-58
2021/07/16 00:29:59;;;;;;;0.17;0.17;;;;;;;28.74;46.63;99478.00;5050034;28;20045;-58
2021/07/16 00:32:25;;;;;;;0.40;0.40;;;;;;;28.73;46.46;99473.66;5050240;28;20072;-59
2021/07/16 00:34:57;;;;;;;0.20;0.20;;;;;;;28.71;46.73;99470.34;5034339;28;20084;-58
2021/07/16 00:37:23;;;;;;;0.13;0.13;;;;;;;28.68;46.59;99465.41;5051024;28;20055;-59
2021/07/16 00:39:49;;;;;;;0.15;0.15;;;;;;;28.66;46.88;99462.13;5050984;28;20510;-59
2021/07/16 00:42:15;;;;;;;0.10;0.10;;;;;;;28.68;46.67;99461.88;5050860;28;20052;-58
2021/07/16 00:44:41;;;;;;;0.10;0.10;;;;;;;28.68;46.66;99465.41;5051055;28;20053;-58
2021/07/16 00:47:07;;;;;;;0.00;0.00;;;;;;;28.65;46.71;99460.41;5050958;28;20044;-58
2021/07/16 00:49:36;;;;;;;0.10;0.10;;;;;;;28.67;46.38;99463.75;5050942;28;20056;-57
2021/07/16 00:52:02;;;;;;;0.50;0.50;;;;;;;28.65;46.44;99460.41;5049599;28;20056;-58
2021/07/16 00:54:28;;;;;;;0.10;0.10;;;;;;;28.66;46.69;99467.47;5050895;28;20041;-59
2021/07/16 00:56:54;;;;;;;0.45;0.45;;;;;;;28.63;46.65;99453.59;5050588;28;20131;-58
2021/07/16 00:59:21;;;;;;;0.50;0.50;;;;;;;28.62;46.42;99450.09;5050649;28;20482;-59
2021/07/16 01:01:46;;;;;;;0.10;0.10;;;;;;;28.65;46.69;99457.72;5016299;28;20053;-59
2021/07/16 01:04:13;;;;;;;0.10;0.10;;;;;;;28.61;46.62;99456.50;5050830;28;20052;-58
2021/07/16 01:06:39;;;;;;;0.00;0.00;;;;;;;28.64;46.58;99448.00;5050668;28;20427;-59
2021/07/16 01:09:06;;;;;;;0.17;0.17;;;;;;;28.65;46.48;99452.34;5050227;28;20156;-58
2021/07/16 01:11:33;;;;;;;0.10;0.10;;;;;;;28.60;46.58;99451.34;5050841;28;20593;-58
2021/07/16 01:13:59;;;;;;;0.10;0.10;;;;;;;28.66;46.30;99455.91;5032566;28;20110;-58
2021/07/16 01:16:25;;;;;;;0.00;0.00;;;;;;;28.63;46.40;99446.34;5050373;28;20058;-58
2021/07/16 01:18:51;;;;;;;0.10;0.10;;;;;;;28.65;46.52;99449.66;5032200;28;20056;-58
2021/07/16 01:21:17;;;;;;;0.38;0.20;;;;;;;28.67;46.23;99453.00;5032650;28;20414;-58
2021/07/16 01:23:43;;;;;;;0.40;0.20;;;;;;;28.68;46.49;99454.66;5050288;28;20080;-58
2021/07/16 01:26:09;;;;;;;0.10;0.10;;;;;;;28.69;46.42;99452.78;5050081;28;20138;-56
2021/07/16 01:28:38;;;;;;;0.00;0.00;;;;;;;28.68;46.34;99441.22;5049982;28;20056;-58
2021/07/16 01:31:06;;;;;;;0.10;0.10;;;;;;;28.72;46.09;99442.44;5050111;28;20056;-58
2021/07/16 01:33:32;;;;;;;8.27;3.22;;;;;;;28.80;45.99;99447.59;5050142;28;20049;-57
2021/07/16 01:35:59;;;;;;;0.20;0.20;;;;;;;28.93;45.55;99439.47;5032185;28;20132;-59
2021/07/16 01:38:28;;;;;;;0.20;0.20;;;;;;;29.27;44.90;99448.28;5050105;28;20522;-59
2021/07/16 01:40:54;;;;;;;0.20;0.20;;;;;;;29.53;44.04;99445.44;5049853;28;20083;-58
2021/07/16 01:43:20;;;;;;;0.20;0.20;;;;;;;29.45;43.73;99395.38;5049732;28;20072;-59
2021/07/16 01:45:46;;;;;;;0.30;0.30;;;;;;;30.03;43.10;99448.22;5049968;28;20049;-56
2021/07/16 01:48:14;;;;;;;0.10;0.10;;;;;;;30.27;42.52;99453.59;5049767;28;20172;-58
2021/07/16 01:50:45;;;;;;;0.10;0.10;;;;;;;30.58;41.97;99451.91;5049791;28;20083;-56
2021/07/16 01:53:13;;;;;;;0.10;0.10;;;;;;;30.83;41.41;99458.88;5049745;28;20043;-57
2021/07/16 01:55:39;;;;;;;0.10;0.10;;;;;;;31.07;40.88;99446.41;5049792;28;20098;-58
2021/07/16 01:58:07;;;;;;;0.20;0.20;;;;;;;31.32;40.39;99455.19;5049430;28;20530;-60
2021/07/16 02:00:38;;;;;;;0.17;0.17;;;;;;;31.54;40.04;99452.03;5049700;28;20055;-57
2021/07/16 02:03:06;;;;;;;0.05;0.05;;;;;;;31.76;39.33;99451.28;5031721;28;20045;-57
2021/07/16 02:05:32;;;;;;;0.10;0.10;;;;;;;31.93;38.99;99451.44;5049628;28;20426;-58
2021/07/16 02:08:13;;;;;;;0.10;0.10;;;;;;;32.11;38.96;99450.56;5031611;28;20075;-59
2021/07/16 02:10:39;;;;;;;0.20;0.20;;;;;;;32.26;38.43;99449.06;5049557;28;20059;-59
2021/07/16 02:13:05;;;;;;;0.20;0.20;;;;;;;32.47;37.90;99453.03;5049254;28;20060;-58
2021/07/16 02:15:32;;;;;;;0.17;0.17;;;;;;;32.66;37.52;99451.09;5049590;28;20055;-58
2021/07/16 02:17:59;;;;;;;0.17;0.17;;;;;;;32.82;37.00;99445.75;5049209;28;20561;-58
2021/07/16 02:20:25;;;;;;;0.10;0.10;;;;;;;32.98;36.89;99445.00;5049357;28;20143;-58
2021/07/16 02:22:51;;;;;;;0.57;0.57;;;;;;;33.19;36.43;99457.09;5049087;28;20532;-59
2021/07/16 02:25:18;;;;;;;0.20;0.20;;;;;;;33.34;36.18;99445.75;5049367;28;20045;-59
2021/07/16 02:27:51;;;;;;;0.22;0.22;;;;;;;33.50;35.93;99453.09;5049373;28;20168;-58
2021/07/16 02:30:18;;;;;;;0.10;0.10;;;;;;;33.66;35.72;99455.06;5032470;28;20049;-58
2021/07/16 02:32:45;;;;;;;0.40;0.40;;;;;;;33.80;35.18;99444.75;5049290;28;20060;-58
2021/07/16 02:35:11;;;;;;;0.10;0.10;;;;;;;33.97;35.05;99449.09;5049199;28;20057;-58
2021/07/16 02:37:37;;;;;;;0.10;0.10;;;;;;;34.13;34.67;99446.69;5049231;28;20048;-58
2021/07/16 02:40:04;;;;;;;0.10;0.10;;;;;;;34.13;34.75;99427.69;5049059;28;20060;-58
2021/07/16 02:42:30;;;;;;;0.15;0.15;;;;;;;34.40;34.43;99443.03;5031185;28;20060;-58
2021/07/16 02:44:56;;;;;;;0.10;0.10;;;;;;;34.53;33.91;99447.28;5049018;28;20049;-59
2021/07/16 02:47:22;;;;;;;0.20;0.20;;;;;;;34.59;33.71;99440.84;5049037;28;20040;-59
2021/07/16 02:49:48;;;;;;;0.20;0.20;;;;;;;34.76;33.43;99438.94;5049295;28;20056;-59
2021/07/16 02:52:14;;;;;;;0.25;0.25;;;;;;;34.92;33.39;99450.81;5048840;28;20422;-57
2021/07/16 02:54:40;;;;;;;0.60;0.60;;;;;;;35.06;32.82;99446.66;5049847;28;20056;-59
2021/07/16 02:57:06;;;;;;;0.17;0.17;;;;;;;35.15;32.96;99444.34;5052787;28;20049;-59
2021/07/16 02:59:32;;;;;;;0.13;0.13;;;;;;;35.16;32.58;99435.13;5052943;28;20529;-58
2021/07/16 03:01:59;;;;;;;0.20;0.20;;;;;;;35.32;32.52;99445.91;5052810;28;20102;-59
2021/07/16 03:04:25;;;;;;;0.30;0.30;;;;;;;35.46;32.20;99449.06;5052886;28;20084;-58
2021/07/16 03:06:51;;;;;;;0.10;0.10;;;;;;;35.58;32.18;99436.13;5051806;28;20076;-59
2021/07/16 03:09:17;;;;;;;0.13;0.13;;;;;;;35.66;31.79;99438.41;5052620;28;20088;-58
2021/07/16 03:11:43;;;;;;;0.20;0.20;;;;;;;35.77;31.71;99437.41;5034985;28;20048;-59
2021/07/16 03:14:09;;;;;;;0.13;0.13;;;;;;;35.89;31.65;99446.25;5051349;28;20506;-59
2021/07/16 03:16:35;;;;;;;0.20;0.20;;;;;;;35.98;31.34;99439.25;5034983;28;20056;-59
2021/07/16 03:19:01;;;;;;;0.25;0.25;;;;;;;36.17;31.08;99449.75;5052373;28;20053;-59
2021/07/16 03:21:27;;;;;;;0.10;0.10;;;;;;;36.28;31.03;99444.13;5051424;28;20059;-57
2021/07/16 03:23:53;;;;;;;0.30;0.30;;;;;;;36.39;30.78;99439.56;5052575;28;20053;-57
2021/07/16 03:26:18;;;;;;;0.20;0.20;;;;;;;36.51;30.55;99442.91;5052653;28;20055;-58
2021/07/16 03:28:45;;;;;;;0.20;0.20;;;;;;;36.59;30.55;99447.06;5052370;28;20049;-58
2021/07/16 03:31:11;;;;;;;0.10;0.10;;;;;;;36.72;30.33;99455.56;5052174;28;20593;-58
2021/07/16 03:33:37;;;;;;;0.15;0.15;;;;;;;36.74;30.27;99447.97;5052178;28;20095;-58
2021/07/16 03:36:05;;;;;;;0.10;0.10;;;;;;;36.86;30.08;99456.75;5034297;28;20053;-58
2021/07/16 03:38:31;;;;;;;0.20;0.20;;;;;;;36.97;29.96;99463.06;5052235;28;20095;-57
2021/07/16 03:40:59;;;;;;;0.10;0.10;;;;;;;37.04;29.77;99453.56;5051776;28;20057;-58
2021/07/16 03:43:25;;;;;;;0.10;0.10;;;;;;;37.07;29.79;99454.16;5034400;28;20057;-58
2021/07/16 03:45:51;;;;;;;0.20;0.20;;;;;;;37.17;29.53;99462.38;5052297;28;20063;-58
2021/07/16 03:48:18;;;;;;;0.32;0.32;;;;;;;37.10;29.75;99440.81;5051828;28;20049;-57
2021/07/16 03:50:44;;;;;;;0.30;0.30;;;;;;;37.25;29.44;99459.09;5051981;28;20044;-58
2021/07/16 03:53:10;;;;;;;0.20;0.20;;;;;;;37.27;29.53;99457.75;5051927;28;20051;-59
2021/07/16 03:55:36;;;;;;;0.10;0.10;;;;;;;37.37;29.20;99465.94;5052023;28;20052;-58
2021/07/16 03:58:02;;;;;;;0.47;0.47;;;;;;;37.44;29.17;99468.41;5051792;28;20049;-58
2021/07/16 04:00:29;;;;;;;0.40;0.40;;;;;;;37.49;29.13;99471.22;5051957;28;20075;-58
2021/07/16 04:02:56;;;;;;;0.20;0.20;;;;;;;37.59;29.21;99470.41;5051465;28;20421;-58
2021/07/16 04:05:23;;;;;;;0.20;0.20;;;;;;;37.66;29.19;99470.97;5051621;28;20059;-58
2021/07/16 04:07:50;;;;;;;0.17;0.17;;;;;;;37.70;28.92;99472.88;5051604;28;20428;-58
2021/07/16 04:10:21;;;;;;;0.13;0.13;;;;;;;37.81;29.02;99474.53;5051436;28;20041;-57
2021/07/16 04:12:52;;;;;;;2.03;0.68;;;;;;;37.90;28.81;99481.06;5033843;28;20049;-58
2021/07/16 04:15:18;;;;;;;0.30;0.30;;;;;;;37.93;28.73;99475.09;5051512;28;20492;-59
2021/07/16 04:17:44;;;;;;;0.20;0.20;;;;;;;38.05;28.59;99472.94;5051380;28;20055;-58
2021/07/16 04:20:10;;;;;;;2.13;0.30;;;;;;;38.00;27.99;99445.66;5051145;28;20060;-58
2021/07/16 04:22:36;;;;;;;0.15;0.15;;;;;;;38.26;28.23;99473.75;5051341;28;20048;-58
2021/07/16 04:25:03;;;;;;;0.20;0.20;;;;;;;38.32;28.13;99474.56;5051244;28;20045;-58
2021/07/16 04:27:29;;;;;;;0.28;0.28;;;;;;;38.37;27.80;99471.84;5051369;28;20053;-58
2021/07/16 04:29:55;;;;;;;0.20;0.20;;;;;;;38.41;27.83;99471.03;5051179;28;20041;-59
2021/07/16 04:32:21;;;;;;;0.40;0.40;;;;;;;38.44;27.71;99458.75;5050989;28;20053;-58
2021/07/16 04:34:47;;;;;;;0.10;0.10;;;;;;;38.58;27.49;99463.34;5033352;28;20527;-58
2021/07/16 04:37:13;;;;;;;0.25;0.25;;;;;;;38.60;27.50;99465.81;5050997;28;20049;-58
2021/07/16 04:39:39;;;;;;;0.20;0.20;;;;;;;38.70;27.56;99465.78;5033310;28;20572;-59
2021/07/16 04:42:05;;;;;;;0.40;0.40;;;;;;;38.75;27.84;99468.50;5049639;28;20056;-59
2021/07/16 04:44:31;;;;;;;0.45;0.45;;;;;;;38.77;27.23;99463.59;5051019;28;20080;-58
2021/07/16 04:46:59;;;;;;;0.60;0.60;;;;;;;38.77;27.15;99463.59;5051198;28;20080;-58
2021/07/16 04:49:25;;;;;;;0.30;0.30;;;;;;;38.88;27.37;99473.41;5050898;28;20135;-58
2021/07/16 04:51:51;;;;;;;0.43;0.43;;;;;;;38.86;27.49;99470.13;5050910;28;20371;-58
2021/07/16 04:54:17;;;;;;;0.35;0.35;;;;;;;38.95;27.24;99468.47;5050567;28;20049;-58
2021/07/16 04:56:44;;;;;;;0.32;0.32;;;;;;;38.96;27.16;99463.81;5050763;28;20533;-58
2021/07/16 04:59:10;;;;;;;0.30;0.30;;;;;;;38.98;27.47;99473.38;5050489;28;20053;-59
2021/07/16 05:01:36;;;;;;;0.20;0.20;;;;;;;38.99;27.18;99472.28;5050799;28;20052;-60
2021/07/16 05:04:02;;;;;;;0.20;0.20;;;;;;;38.97;27.25;99479.13;5032643;28;20053;-60
2021/07/16 05:06:28;;;;;;;0.10;0.10;;;;;;;39.03;26.94;99480.72;5050800;28;20044;-59
2021/07/16 05:08:54;;;;;;;0.10;0.10;;;;;;;39.03;27.00;99481.56;5050460;28;20423;-60
2021/07/16 05:11:20;;;;;;;0.28;0.28;;;;;;;39.05;27.46;99478.53;5050256;28;20049;-60
2021/07/16 05:13:46;;;;;;;0.10;0.10;;;;;;;38.92;27.23;99468.19;5032534;28;20055;-60
2021/07/16 05:16:13;;;;;;;0.15;0.15;;;;;;;39.03;27.50;99481.56;5050236;28;20045;-60
2021/07/16 05:18:39;;;;;;;0.30;0.30;;;;;;;39.08;27.07;99484.25;5049492;28;20092;-60
2021/07/16 05:21:06;;;;;;;0.32;0.32;;;;;;;39.00;27.51;99470.38;5048742;28;20545;-60
2021/07/16 05:23:32;;;;;;;0.15;0.15;;;;;;;39.09;26.88;99493.28;5050067;28;20487;-60
2021/07/16 05:25:58;;;;;;;0.10;0.10;;;;;;;38.99;27.52;99483.19;5050236;28;20648;-59
2021/07/16 05:28:24;;;;;;;0.30;0.30;;;;;;;39.02;27.28;99485.38;5049796;28;20048;-59
2021/07/16 05:30:50;;;;;;;0.22;0.22;;;;;;;39.10;27.01;99486.72;5050140;28;20495;-59
2021/07/16 05:33:16;;;;;;;0.30;0.30;;;;;;;39.07;27.50;99488.06;5032185;28;20497;-58
2021/07/16 05:35:42;;;;;;;0.20;0.20;;;;;;;39.07;27.53;99492.75;5050057;28;20434;-58
2021/07/16 05:38:08;;;;;;;0.30;0.30;;;;;;;39.06;27.26;99491.94;5049635;28;20049;-58
2021/07/16 05:40:35;;;;;;;0.20;0.20;;;;;;;39.08;27.13;99488.91;5050015;28;20571;-58
2021/07/16 05:43:05;;;;;;;0.20;0.20;;;;;;;39.11;27.29;99488.34;5049675;28;20041;-58
2021/07/16 05:45:31;;;;;;;0.20;0.20;;;;;;;39.09;26.95;99482.34;5050012;28;20195;-59
2021/07/16 05:47:59;;;;;;;0.10;0.10;;;;;;;39.10;27.33;99478.53;5049807;28;20254;-57
2021/07/16 05:50:25;;;;;;;0.20;0.20;;;;;;;39.12;27.30;99479.06;5049785;28;20438;-58
2021/07/16 05:52:51;;;;;;;0.13;0.13;;;;;;;39.20;27.25;99488.59;5049628;28;20044;-56
2021/07/16 05:55:17;;;;;;;0.20;0.20;;;;;;;39.19;27.05;99486.94;5049685;28;20461;-57
2021/07/16 05:57:43;;;;;;;0.20;0.20;;;;;;;39.16;26.76;99484.78;5049792;28;20052;-58
2021/07/16 06:00:10;;;;;;;0.30;0.30;;;;;;;39.15;27.25;99478.50;5049412;28;20056;-58
2021/07/16 06:02:40;;;;;;;0.10;0.10;;;;;;;39.16;27.07;99479.31;5049607;28;20115;-59
2021/07/16 06:05:06;;;;;;;0.10;0.10;;;;;;;39.10;27.51;99480.44;5049404;28;20048;-58
2021/07/16 06:07:32;;;;;;;0.30;0.30;;;;;;;39.13;27.15;99479.88;5049724;28;20045;-58
2021/07/16 06:09:58;;;;;;;0.10;0.10;;;;;;;39.19;26.80;99478.75;5049466;28;20403;-58
2021/07/16 06:12:24;;;;;;;0.10;0.10;;;;;;;39.20;27.18;99474.94;5049274;28;20052;-58
2021/07/16 06:14:56;;;;;;;0.20;0.20;;;;;;;39.20;27.07;99480.41;5049410;28;20705;-58
2021/07/16 06:17:24;;;;;;;0.28;0.28;;;;;;;39.29;26.54;99484.19;5048067;28;20507;-58
2021/07/16 06:19:50;;;;;;;0.17;0.17;;;;;;;39.31;26.35;99471.88;5049213;28;20434;-57
2021/07/16 06:22:17;;;;;;;0.20;0.20;;;;;;;39.41;26.36;99471.00;5049215;28;20056;-57
2021/07/16 06:24:43;;;;;;;0.30;0.30;;;;;;;39.43;26.80;99474.28;5049280;28;20049;-57
2021/07/16 06:27:09;;;;;;;0.20;0.20;;;;;;;39.41;26.83;99474.56;5049206;28;20081;-58
2021/07/16 06:29:36;;;;;;;0.28;0.28;;;;;;;39.58;26.10;99479.66;5050161;28;20041;-58
2021/07/16 06:32:02;;;;;;;0.10;0.10;;;;;;;39.84;25.95;99475.69;5053496;28;20138;-57
2021/07/16 06:34:28;;;;;;;0.17;0.17;;;;;;;40.98;24.50;99474.09;5053268;28;20398;-58
2021/07/16 06:36:54;;;;;;;0.50;0.50;;;;;;;44.69;20.41;99472.94;5053448;28;20099;-56
2021/07/16 06:39:20;;;;;;;0.47;0.47;;;;;;;48.20;16.56;99467.59;5035053;28;20057;-57
2021/07/16 06:41:47;;;;;;;0.60;0.60;;;;;;;50.16;14.67;99469.84;5053147;28;20474;-57
2021/07/16 06:44:14;;;;;;;0.40;0.40;;;;;;;51.33;13.45;99476.38;5053001;28;20048;-57
2021/07/16 06:46:40;;;;;;;0.63;0.63;;;;;;;51.98;12.80;99463.44;5035365;28;20433;-58
2021/07/16 06:49:06;;;;;;;0.30;0.30;;;;;;;52.09;12.55;99466.44;5035112;28;20426;-57
2021/07/16 06:51:33;;;;;;;0.30;0.30;;;;;;;52.31;12.64;99465.66;5053192;28;20140;-58
2021/07/16 06:54:05;;;;;;;0.20;0.20;;;;;;;52.35;12.40;99460.97;5053083;28;20060;-57
2021/07/16 06:56:31;;;;;;;0.30;0.30;;;;;;;51.84;12.83;99472.31;5053205;28;20156;-58
2021/07/16 06:59:00;;;;;;;0.30;0.30;;;;;;;51.47;13.09;99457.22;5035088;28;20111;-58
2021/07/16 07:01:26;;;;;;;0.52;0.50;;;;;;;49.34;14.98;99466.66;5034917;28;20444;-58
2021/07/16 07:03:52;;;;;;;0.35;0.35;;;;;;;45.92;17.91;99453.22;5052902;28;20064;-58
2021/07/16 07:06:18;;;;;;;0.20;0.20;;;;;;;43.41;20.35;99461.81;5052716;28;20052;-58
2021/07/16 07:08:44;;;;;;;0.40;0.40;;;;;;;41.77;22.19;99456.03;5052797;28;20041;-58
2021/07/16 07:11:10;;;;;;;0.68;0.68;;;;;;;40.35;24.09;99450.66;5052798;28;20045;-58
2021/07/16 07:13:36;;;;;;;0.28;0.28;;;;;;;39.21;25.63;99454.69;5052768;28;20469;-57
2021/07/16 07:16:02;;;;;;;0.13;0.13;;;;;;;38.78;26.14;99451.56;5052716;28;20581;-58
2021/07/16 07:18:28;;;;;;;0.20;0.20;;;;;;;38.67;26.68;99460.88;5052408;28;20523;-57
2021/07/16 07:20:54;;;;;;;0.20;0.20;;;;;;;38.53;26.95;99459.81;5034816;28;20087;-58
2021/07/16 07:23:20;;;;;;;0.28;0.10;;;;;;;38.38;26.58;99454.41;5052243;28;20049;-58
2021/07/16 07:25:47;;;;;;;0.10;0.10;;;;;;;38.33;26.72;99459.81;5052588;28;20529;-58
2021/07/16 07:28:12;;;;;;;0.20;0.20;;;;;;;38.18;27.19;99452.47;5052288;28;20072;-58
2021/07/16 07:30:39;;;;;;;0.13;0.13;;;;;;;38.07;26.97;99453.56;5034795;28;20581;-58
2021/07/16 07:33:05;;;;;;;0.10;0.10;;;;;;;38.00;27.02;99456.56;5052385;28;20109;-58
2021/07/16 07:35:32;;;;;;;0.10;0.10;;;;;;;37.94;27.24;99463.13;5052375;28;20514;-57
2021/07/16 07:37:59;;;;;;;0.10;0.10;;;;;;;37.87;27.24;99457.09;5052305;28;20187;-58
2021/07/16 07:40:26;;;;;;;0.13;0.13;;;;;;;37.79;27.35;99449.47;5051692;28;20056;-57
2021/07/16 07:42:51;;;;;;;0.10;0.10;;;;;;;37.69;27.30;99454.91;5052070;28;20053;-57
2021/07/16 07:45:17;;;;;;;0.20;0.20;;;;;;;37.63;27.59;99453.25;5051945;28;20079;-58
2021/07/16 07:47:43;;;;;;;0.30;0.30;;;;;;;37.57;27.44;99450.78;5052170;28;20049;-58
2021/07/16 07:50:13;;;;;;;0.15;0.15;;;;;;;37.56;27.63;99449.97;5051862;28;20414;-59
2021/07/16 07:52:39;;;;;;;0.30;0.30;;;;;;;37.40;27.68;99457.22;5052094;28;20521;-58
2021/07/16 07:55:06;;;;;;;0.10;0.10;;;;;;;37.33;27.61;99462.16;5034052;28;20041;-58
2021/07/16 07:57:32;;;;;;;0.20;0.20;;;;;;;37.25;27.72;99453.66;5051794;28;20048;-58
2021/07/16 07:59:58;;;;;;;0.10;0.10;;;;;;;37.16;27.70;99456.09;5034064;28;20110;-58
2021/07/16 08:02:24;;;;;;;0.10;0.10;;;;;;;37.10;27.58;99450.88;5051819;28;20048;-58
2021/07/16 08:04:51;;;;;;;0.40;0.40;;;;;;;36.96;27.92;99456.78;5051730;28;20067;-58
2021/07/16 08:07:17;;;;;;;0.20;0.20;;;;;;;36.85;27.86;99448.84;5051648;28;20041;-59
2021/07/16 08:09:43;;;;;;;0.10;0.10;;;;;;;36.58;28.41;99465.31;5051672;28;20063;-58
2021/07/16 08:12:09;;;;;;;0.10;0.10;;;;;;;36.53;28.45;99454.34;5051611;28;20511;-58
2021/07/16 08:14:35;;;;;;;0.10;0.10;;;;;;;36.60;28.25;99452.25;5033611;28;20049;-57
2021/07/16 08:17:01;;;;;;;0.20;0.20;;;;;;;36.61;28.43;99459.34;5051439;28;20084;-58
2021/07/16 08:19:27;;;;;;;0.13;0.13;;;;;;;36.54;28.53;99456.03;5051203;28;20076;-57
2021/07/16 08:21:53;;;;;;;0.20;0.20;;;;;;;36.48;28.44;99448.91;5051656;28;20044;-57
2021/07/16 08:24:20;;;;;;;0.22;0.22;;;;;;;36.42;28.59;99456.19;5033478;28;20055;-57
2021/07/16 08:26:46;;;;;;;0.20;0.20;;;;;;;36.29;28.56;99453.13;5033701;28;20053;-58
2021/07/16 08:29:12;;;;;;;0.17;0.17;;;;;;;36.12;29.10;99461.41;5051159;28;20103;-59
2021/07/16 08:31:39;;;;;;;0.10;0.10;;;;;;;36.08;29.22;99459.47;5051402;28;20036;-57
2021/07/16 08:34:06;;;;;;;0.10;0.10;;;;;;;35.84;29.72;99448.09;5049850;28;20056;-57
2021/07/16 08:36:32;;;;;;;0.10;0.10;;;;;;;35.67;29.87;99453.63;5050968;28;20052;-57
2021/07/16 08:38:58;;;;;;;0.10;0.10;;;;;;;35.66;29.75;99440.31;5033300;28;20510;-58
2021/07/16 08:41:24;;;;;;;0.10;0.10;;;;;;;35.79;29.81;99442.63;5050672;28;20111;-57
2021/07/16 08:43:50;;;;;;;0.15;0.15;;;;;;;35.87;29.47;99444.84;5033291;28;20053;-58
2021/07/16 08:46:16;;;;;;;0.10;0.10;;;;;;;35.94;29.34;99457.16;5033219;28;20072;-58
2021/07/16 08:48:42;;;;;;;0.10;0.10;;;;;;;35.96;29.34;99452.25;5016669;28;20565;-58
2021/07/16 08:51:10;;;;;;;0.17;0.17;;;;;;;35.85;29.36;99438.84;5049742;28;20059;-58
2021/07/16 08:53:36;;;;;;;0.20;0.20;;;;;;;35.92;29.45;99455.78;5049757;28;20396;-58
2021/07/16 08:56:02;;;;;;;0.08;0.08;;;;;;;35.84;29.47;99454.34;5050869;28;20059;-58
2021/07/16 08:58:28;;;;;;;0.43;0.43;;;;;;;35.82;29.53;99455.69;5050502;28;20052;-58
2021/07/16 09:00:54;;;;;;;0.10;0.10;;;;;;;35.78;29.57;99444.50;5050747;28;20049;-58
2021/07/16 09:03:20;;;;;;;0.10;0.10;;;;;;;35.74;29.89;99448.81;5050410;28;20049;-58
2021/07/16 09:05:59;;;;;;;0.10;0.10;;;;;;;35.71;29.83;99452.03;5050786;28;20506;-61
2021/07/16 09:08:25;;;;;;;0.13;0.13;;;;;;;35.62;29.94;99444.63;5050283;28;20135;-58
2021/07/16 09:10:54;;;;;;;0.05;0.05;;;;;;;35.42;30.46;99450.63;5016437;28;20489;-59
2021/07/16 09:13:21;;;;;;;0.10;0.10;;;;;;;35.30;30.55;99450.78;5032439;28;20412;-59
2021/07/16 09:15:51;;;;;;;0.00;0.00;;;;;;;35.17;31.07;99453.06;5050513;28;20049;-58
2021/07/16 09:18:21;;;;;;;0.10;0.10;;;;;;;35.13;31.18;99452.75;5050402;28;20052;-58
2021/07/16 09:21:03;;;;;;;0.03;0.03;;;;;;;35.07;31.15;99436.63;5033102;28;20061;-58
2021/07/16 09:23:42;;;;;;;0.10;0.10;;;;;;;35.13;30.53;99435.63;5032381;28;20045;-62
2021/07/16 09:26:25;;;;;;;0.10;0.10;;;;;;;35.21;30.45;99440.63;5050472;28;20056;-58
2021/07/16 09:28:51;;;;;;;0.52;0.52;;;;;;;35.22;30.01;99436.81;5033454;28;20053;-59
2021/07/16 09:31:24;;;;;;;0.17;0.17;;;;;;;35.23;30.61;99438.47;5050039;28;20046;-58
2021/07/16 09:33:52;;;;;;;0.10;0.10;;;;;;;35.21;30.59;99437.91;5032873;28;20507;-58
2021/07/16 09:36:35;;;;;;;0.20;0.20;;;;;;;35.11;30.67;99437.78;5049858;28;20056;-58
2021/07/16 09:39:13;;;;;;;0.17;0.17;;;;;;;34.97;30.82;99432.72;5032129;28;20080;-59
2021/07/16 09:41:51;;;;;;;;;;;;;;;34.91;31.02;99433.75;5050218;28;20057;-59
2021/07/16 09:44:30;;;;;;;0.10;0.10;;;;;;;34.94;31.06;99435.94;5031817;28;19921;-59
2021/07/16 09:47:26;;;;;;;0.35;0.35;;;;;;;35.10;30.91;99441.53;5049993;28;20064;-58
2021/07/16 09:50:07;;;;;;;0.00;0.00;;;;;;;35.22;30.43;99434.09;5032011;28;20045;-57
2021/07/16 09:52:33;;;;;;;0.28;0.28;;;;;;;35.24;30.71;99426.53;5049723;28;20128;-58
2021/07/16 09:55:28;;;;;;;0.43;0.30;;;;;;;35.28;30.27;99433.91;5031900;28;20052;-58
2021/07/16 09:57:57;;;;;;;0.20;0.20;;;;;;;35.28;30.19;99430.38;5030979;28;20132;-58
2021/07/16 10:00:25;;;;;;;0.20;0.20;;;;;;;35.27;30.33;99434.19;5049406;28;20575;-59
2021/07/16 10:02:55;;;;;;;0.15;0.15;;;;;;;35.21;30.58;99429.78;5049644;28;20049;-58
2021/07/16 10:05:21;;;;;;;0.20;0.20;;;;;;;35.10;30.85;99411.69;5049121;28;20054;-59
2021/07/16 10:07:47;;;;;;;0.10;0.10;;;;;;;35.02;30.69;99424.63;5031881;28;20053;-58
2021/07/16 10:10:22;;;;;;;0.20;0.20;;;;;;;34.93;31.15;99420.72;5049707;28;20049;-58
2021/07/16 10:12:49;;;;;;;0.10;0.10;;;;;;;34.90;31.05;99423.94;5049563;28;20049;-58
2021/07/16 10:15:20;;;;;;;0.10;0.10;;;;;;;34.96;31.24;99422.94;5049485;28;20057;-58
2021/07/16 10:17:46;;;;;;;0.10;0.10;;;;;;;35.09;31.04;99418.19;5049586;28;20049;-58
2021/07/16 10:20:14;;;;;;;0.10;0.10;;;;;;;35.14;30.73;99416.41;5049413;28;20057;-58
2021/07/16 10:22:41;;;;;;;0.10;0.10;;;;;;;35.24;30.58;99402.94;5049117;28;20190;-59
2021/07/16 10:25:08;;;;;;;0.00;0.00;;;;;;;35.30;30.33;99407.34;4998859;28;20549;-59
2021/07/16 10:27:34;;;;;;;0.25;0.25;;;;;;;35.30;30.48;99409.22;5049154;28;20048;-58
2021/07/16 10:30:10;;;;;;;0.10;0.10;;;;;;;35.22;30.04;99405.06;5049089;28;20552;-59
2021/07/16 10:32:44;;;;;;;0.05;0.05;;;;;;;35.05;30.46;99405.13;5049102;28;20064;-58
2021/07/16 10:35:21;;;;;;;0.10;0.10;;;;;;;35.03;30.21;99403.72;5049222;28;20049;-57
2021/07/16 10:37:58;;;;;;;0.20;0.20;;;;;;;35.03;30.22;99393.69;5031486;28;20088;-58
2021/07/16 10:40:43;;;;;;;0.20;0.20;;;;;;;35.13;29.81;99392.19;5030918;28;20136;-58
2021/07/16 10:43:30;;;;;;;0.10;0.10;;;;;;;35.16;30.13;99380.81;5049120;28;20518;-57
2021/07/16 10:45:56;;;;;;;0.13;0.13;;;;;;;35.09;30.26;99369.31;5035666;28;20045;-57
2021/07/16 10:48:23;;;;;;;0.13;0.13;;;;;;;35.14;30.22;99372.13;5049070;28;20049;-57
2021/07/16 10:50:50;;;;;;;0.00;0.00;;;;;;;35.12;30.04;99379.69;5049081;28;20072;-58
2021/07/16 10:53:38;;;;;;;0.00;0.00;;;;;;;35.14;30.15;99372.13;5049289;28;20087;-58
2021/07/16 10:56:10;;;;;;;0.20;0.20;;;;;;;35.13;30.07;99370.47;5049095;28;20426;-58
2021/07/16 10:58:40;;;;;;;0.10;0.10;;;;;;;34.99;30.62;99370.03;5048973;28;20469;-57
2021/07/16 11:01:06;;;;;;;0.10;0.10;;;;;;;34.81;30.72;99378.50;5048874;28;20517;-57
2021/07/16 11:03:43;;;;;;;0.03;0.03;;;;;;;34.70;30.64;99372.13;5048955;28;20048;-56
2021/07/16 11:06:12;;;;;;;0.10;0.10;;;;;;;34.66;31.01;99365.56;5048994;28;20060;-56
2021/07/16 11:08:39;;;;;;;0.10;0.10;;;;;;;34.70;30.94;99355.84;5048713;28;20049;-57
2021/07/16 11:11:06;;;;;;;0.17;0.17;;;;;;;34.68;30.71;99355.28;5048921;28;20052;-58
2021/07/16 11:13:42;;;;;;;0.13;0.13;;;;;;;34.72;30.59;99356.41;5048764;28;20049;-57
2021/07/16 11:18:56;;;;;;;0.00;0.00;;;;;;;34.71;30.19;99346.66;5052627;28;20513;-58
2021/07/16 11:21:45;;;;;;;0.13;0.13;;;;;;;34.70;30.10;99349.59;5052410;28;20053;-58
2021/07/16 11:24:24;;;;;;;0.00;0.00;;;;;;;34.70;29.89;99355.84;5052586;28;20609;-57
2021/07/16 11:26:52;;;;;;;0.10;0.10;;;;;;;34.70;29.63;99347.72;5034389;28;20476;-58
2021/07/16 11:29:19;;;;;;;0.00;0.00;;;;;;;34.72;29.89;99348.25;5052445;28;20104;-58
2021/07/16 11:31:45;;;;;;;0.15;0.15;;;;;;;34.73;29.98;99347.22;5052185;28;20544;-58
2021/07/16 11:34:14;;;;;;;0.20;0.20;;;;;;;34.73;30.16;99343.66;5052441;28;20053;-56
2021/07/16 11:36:50;;;;;;;0.28;0.28;;;;;;;34.64;30.30;99337.88;5034722;28;20416;-57
2021/07/16 11:39:35;;;;;;;0.17;0.17;;;;;;;34.68;30.35;99340.91;5052443;28;20057;-58